createdAt,value
2023-09-08T00:01:35.401Z,90.60
2023-09-08T00:04:03.845Z,90.13
2023-09-08T00:06:32.319Z,90.74
2023-09-08T00:09:00.483Z,90.71
2023-09-08T00:11:28.676Z,90.60
2023-09-08T00:13:56.867Z,90.67
2023-09-08T00:16:25.223Z,90.84
2023-09-08T00:18:54.172Z,91.30
2023-09-08T00:21:22.351Z,91.02
2023-09-08T00:23:50.534Z,91.04
2023-09-08T00:26:18.760Z,90.86
2023-09-08T00:28:47.431Z,90.53
2023-09-08T00:31:15.836Z,91.10
2023-09-08T00:33:45.557Z,90.94
2023-09-08T00:36:13.836Z,91.41
2023-09-08T00:38:42.654Z,91.61
2023-09-08T00:41:10.998Z,91.71
2023-09-08T00:43:39.271Z,92.09
2023-09-08T00:46:08.934Z,91.83
2023-09-08T00:48:38.940Z,91.87
2023-09-08T00:51:08.935Z,91.69
2023-09-08T00:53:37.463Z,91.60
2023-09-08T00:56:06.634Z,91.89
2023-09-08T00:58:36.020Z,91.68
2023-09-08T01:01:07.199Z,91.81
2023-09-08T01:03:35.534Z,91.72
2023-09-08T01:06:04.328Z,92.01
2023-09-08T01:08:33.277Z,92.32
2023-09-08T01:11:02.096Z,92.32
2023-09-08T01:13:30.742Z,92.12
2023-09-08T01:15:59.105Z,92.39
2023-09-08T01:18:28.720Z,91.80
2023-09-08T01:21:08.452Z,92.22
2023-09-08T01:23:58.846Z,92.02
2023-09-08T01:26:32.963Z,92.19
2023-09-08T01:29:01.961Z,92.42
2023-09-08T01:31:30.366Z,92.37
2023-09-08T01:34:07.911Z,92.03
2023-09-08T01:36:37.123Z,92.61
2023-09-08T01:39:05.426Z,92.83
2023-09-08T01:41:33.828Z,93.21
2023-09-08T01:44:06.482Z,92.98
2023-09-08T01:46:36.512Z,93.13
2023-09-08T01:49:04.846Z,93.05
2023-09-08T01:51:33.140Z,93.02
2023-09-08T01:54:02.890Z,93.06
2023-09-08T01:56:31.114Z,92.99
2023-09-08T01:59:00.519Z,92.92
2023-09-08T02:01:29.385Z,92.91
2023-09-08T02:03:57.630Z,93.49
2023-09-08T02:06:25.859Z,93.23
2023-09-08T02:08:54.735Z,93.05
2023-09-08T02:11:23.051Z,92.81
2023-09-08T02:13:51.258Z,93.11
2023-09-08T02:16:19.633Z,93.45
2023-09-08T02:18:47.792Z,93.02
2023-09-08T02:21:15.980Z,92.88
2023-09-08T02:23:44.825Z,93.66
2023-09-08T02:26:13.089Z,93.28
2023-09-08T02:28:41.293Z,93.37
2023-09-08T02:31:09.586Z,93.41
2023-09-08T02:33:37.837Z,94.10
2023-09-08T02:36:07.388Z,94.14
2023-09-08T02:38:37.504Z,94.13
2023-09-08T02:41:06.393Z,93.97
2023-09-08T02:43:34.591Z,94.06
2023-09-08T02:46:02.941Z,94.41
2023-09-08T02:48:32.633Z,94.27
2023-09-08T02:51:00.937Z,93.97
2023-09-08T02:53:30.009Z,94.28
2023-09-08T02:55:59.134Z,94.34
2023-09-08T02:58:28.911Z,94.33
2023-09-08T03:00:58.022Z,94.43
2023-09-08T03:03:26.292Z,94.02
2023-09-08T03:06:01.626Z,94.35
2023-09-08T03:08:30.395Z,93.93
2023-09-08T03:11:00.627Z,94.18
2023-09-08T03:13:30.316Z,94.33
2023-09-08T03:15:58.609Z,94.46
2023-09-08T03:18:26.845Z,94.54
2023-09-08T03:20:55.098Z,94.49
2023-09-08T03:23:24.053Z,94.43
2023-09-08T03:25:52.348Z,95.13
2023-09-08T03:28:20.516Z,94.75
2023-09-08T03:30:48.778Z,94.95
2023-09-08T03:33:17.402Z,94.71
2023-09-08T03:35:45.827Z,95.00
2023-09-08T03:38:14.138Z,94.74
2023-09-08T03:40:43.856Z,94.75
2023-09-08T03:43:12.301Z,95.11
2023-09-08T03:45:40.588Z,94.91
2023-09-08T03:48:08.954Z,94.70
2023-09-08T03:50:37.427Z,94.38
2023-09-08T03:53:05.996Z,94.89
2023-09-08T03:55:34.610Z,94.79
2023-09-08T03:58:02.817Z,94.48
2023-09-08T04:00:31.224Z,94.40
2023-09-08T04:02:59.525Z,94.52
2023-09-08T04:05:27.885Z,94.60
2023-09-08T04:07:56.235Z,94.37
2023-09-08T04:10:24.434Z,94.39
2023-09-08T04:12:52.996Z,95.01
2023-09-08T04:15:21.901Z,94.84
2023-09-08T04:17:50.279Z,94.75
2023-09-08T04:20:19.761Z,94.65
2023-09-08T04:22:48.937Z,94.95
2023-09-08T04:25:17.209Z,94.97
2023-09-08T04:27:45.900Z,94.82
2023-09-08T04:30:14.931Z,95.15
2023-09-08T04:32:43.964Z,95.07
2023-09-08T04:35:12.815Z,94.99
2023-09-08T04:37:41.384Z,94.89
2023-09-08T04:40:09.935Z,95.14
2023-09-08T04:42:38.938Z,94.85
2023-09-08T04:45:08.948Z,95.17
2023-09-08T04:47:38.882Z,95.15
2023-09-08T04:50:07.828Z,95.52
2023-09-08T04:52:36.436Z,95.79
2023-09-08T04:55:06.010Z,95.93
2023-09-08T04:57:34.636Z,95.66
2023-09-08T05:00:04.316Z,95.93
2023-09-08T05:02:32.706Z,96.10
2023-09-08T05:05:01.440Z,96.09
2023-09-08T05:07:29.999Z,95.79
2023-09-08T05:09:58.575Z,95.98
2023-09-08T05:12:30.613Z,96.15
2023-09-08T05:15:07.094Z,96.31
2023-09-08T05:17:37.502Z,96.18
2023-09-08T05:20:06.289Z,96.05
2023-09-08T05:22:34.764Z,95.77
2023-09-08T05:25:03.182Z,96.14
2023-09-08T05:27:33.000Z,95.57
2023-09-08T05:30:01.394Z,95.76
2023-09-08T05:32:29.830Z,95.91
2023-09-08T05:34:58.061Z,95.61
2023-09-08T05:37:26.244Z,95.67
2023-09-08T05:39:54.646Z,95.38
2023-09-08T05:42:22.903Z,95.35
2023-09-08T05:44:52.168Z,95.32
2023-09-08T05:47:20.564Z,94.99
2023-09-08T05:49:48.959Z,95.02
2023-09-08T05:52:17.207Z,95.23
2023-09-08T05:54:46.725Z,94.93
2023-09-08T05:57:14.960Z,95.00
2023-09-08T05:59:43.296Z,94.92
2023-09-08T06:02:11.631Z,95.11
2023-09-08T06:04:39.941Z,94.69
2023-09-08T06:07:09.823Z,94.60
2023-09-08T06:09:38.291Z,93.78
2023-09-08T06:12:07.119Z,93.93
2023-09-08T06:14:35.446Z,93.67
2023-09-08T06:17:03.668Z,93.29
2023-09-08T06:19:32.166Z,93.63
2023-09-08T06:22:00.396Z,92.78
2023-09-08T06:24:29.181Z,92.99
2023-09-08T06:26:57.857Z,92.32
2023-09-08T06:29:26.963Z,91.92
2023-09-08T06:31:55.211Z,91.80
2023-09-08T06:34:24.477Z,91.40
2023-09-08T06:36:53.034Z,91.04
2023-09-08T06:39:21.301Z,90.62
2023-09-08T06:41:49.610Z,90.76
2023-09-08T06:44:19.283Z,90.38
2023-09-08T06:46:48.185Z,90.07
2023-09-08T06:49:16.754Z,89.83
2023-09-08T06:51:44.987Z,89.94
2023-09-08T06:54:13.285Z,89.71
2023-09-08T06:56:44.527Z,87.50
2023-09-08T06:59:13.355Z,85.15
2023-09-08T07:01:41.711Z,85.15
2023-09-08T07:04:12.343Z,83.63
2023-09-08T07:06:43.117Z,80.42
2023-09-08T07:09:12.295Z,75.14
2023-09-08T07:11:40.698Z,76.23
2023-09-08T07:14:09.525Z,76.56
2023-09-08T07:16:38.725Z,77.82
2023-09-08T07:19:07.828Z,78.36
2023-09-08T07:21:35.773Z,79.05
2023-09-08T07:24:04.073Z,79.13
2023-09-08T07:26:32.315Z,78.16
2023-09-08T07:29:00.599Z,78.87
2023-09-08T07:31:28.868Z,79.54
2023-09-08T07:33:57.173Z,80.18
2023-09-08T07:36:25.440Z,80.12
2023-09-08T07:38:55.834Z,80.19
2023-09-08T07:41:24.887Z,80.43
2023-09-08T07:43:53.160Z,80.09
2023-09-08T07:46:25.405Z,78.82
2023-09-08T07:48:54.054Z,78.78
2023-09-08T07:51:22.267Z,78.95
2023-09-08T07:53:50.611Z,79.42
2023-09-08T07:56:18.972Z,79.43
2023-09-08T07:58:47.300Z,79.15
2023-09-08T08:01:16.584Z,78.93
2023-09-08T08:03:44.952Z,79.02
2023-09-08T08:06:13.256Z,78.83
2023-09-08T08:08:41.741Z,78.03
2023-09-08T08:11:13.617Z,78.27
2023-09-08T08:13:41.522Z,78.42
2023-09-08T08:16:09.821Z,78.29
2023-09-08T08:18:38.410Z,78.02
2023-09-08T08:21:07.084Z,77.96
2023-09-08T08:23:35.571Z,78.19
2023-09-08T08:26:04.395Z,75.14
2023-09-08T08:28:32.797Z,74.54
2023-09-08T08:31:01.407Z,72.46
2023-09-08T08:33:30.577Z,71.94
2023-09-08T08:36:19.979Z,73.57
2023-09-08T08:38:48.302Z,72.86
2023-09-08T08:41:16.847Z,70.46
2023-09-08T08:43:46.208Z,67.14
2023-09-08T08:46:16.036Z,65.22
2023-09-08T08:48:46.042Z,60.92
2023-09-08T08:51:15.296Z,57.68
2023-09-08T08:53:44.357Z,62.18
2023-09-08T08:56:12.623Z,63.26
2023-09-08T08:58:41.860Z,63.77
2023-09-08T09:01:12.984Z,62.00
2023-09-08T09:03:44.129Z,62.11
2023-09-08T09:06:16.103Z,58.13
2023-09-08T09:08:48.299Z,54.73
2023-09-08T09:11:17.492Z,53.38
2023-09-08T09:13:45.785Z,49.41
2023-09-08T09:16:16.421Z,45.61
2023-09-08T09:19:01.759Z,44.01
2023-09-08T09:21:44.877Z,43.31
2023-09-08T09:24:21.311Z,40.52
2023-09-08T09:26:54.584Z,40.35
2023-09-08T09:29:22.845Z,38.25
2023-09-08T09:32:07.200Z,37.01
2023-09-08T09:34:36.829Z,37.33
2023-09-08T09:37:06.842Z,36.98
2023-09-08T09:39:35.030Z,36.16
2023-09-08T09:42:05.573Z,37.20
2023-09-08T09:44:33.762Z,36.10
2023-09-08T09:47:03.059Z,35.98
2023-09-08T09:49:33.403Z,35.38
2023-09-08T09:52:01.797Z,39.14
2023-09-08T09:54:31.349Z,42.20
2023-09-08T09:56:59.696Z,43.31
2023-09-08T09:59:28.800Z,42.07
2023-09-08T10:01:57.298Z,38.85
2023-09-08T10:04:26.263Z,36.29
2023-09-08T10:06:55.271Z,36.18
2023-09-08T10:09:24.162Z,35.21
2023-09-08T10:11:52.618Z,35.07
2023-09-08T10:14:20.980Z,34.71
2023-09-08T10:16:53.886Z,33.56
2023-09-08T10:19:23.913Z,33.56
2023-09-08T10:21:56.494Z,34.38
2023-09-08T10:24:30.068Z,33.24
2023-09-08T10:27:06.715Z,32.94
2023-09-08T10:29:35.051Z,33.13
2023-09-08T10:32:04.757Z,33.71
2023-09-08T10:34:35.611Z,33.64
2023-09-08T10:37:06.982Z,33.19
2023-09-08T10:39:40.833Z,32.37
2023-09-08T10:42:20.934Z,34.35
2023-09-08T10:44:49.161Z,33.16
2023-09-08T10:47:32.090Z,33.21
2023-09-08T10:50:01.583Z,32.13
2023-09-08T10:52:29.992Z,33.33
2023-09-08T10:54:58.359Z,33.26
2023-09-08T10:57:31.548Z,33.59
2023-09-08T11:00:21.400Z,32.87
2023-09-08T11:02:52.851Z,35.80
2023-09-08T11:05:22.579Z,37.29
2023-09-08T11:07:50.973Z,39.24
2023-09-08T11:10:19.271Z,40.16
2023-09-08T11:12:47.587Z,42.65
2023-09-08T11:15:15.790Z,42.67
2023-09-08T11:17:44.172Z,42.99
2023-09-08T11:20:13.875Z,43.50
2023-09-08T11:22:42.476Z,44.93
2023-09-08T11:25:13.014Z,45.16
2023-09-08T11:27:41.679Z,43.13
2023-09-08T11:30:10.829Z,44.99
2023-09-08T11:32:39.213Z,46.49
2023-09-08T11:35:10.619Z,47.48
2023-09-08T11:37:40.178Z,47.16
2023-09-08T11:40:13.943Z,47.43
2023-09-08T11:42:47.029Z,47.58
2023-09-08T11:45:19.431Z,47.52
2023-09-08T11:47:47.698Z,47.11
2023-09-08T11:50:19.482Z,47.50
2023-09-08T11:52:52.795Z,49.30
2023-09-08T11:55:24.369Z,48.48
2023-09-08T11:58:17.603Z,50.51
2023-09-08T12:00:49.130Z,48.68
2023-09-08T12:03:18.119Z,49.34
2023-09-08T12:05:52.436Z,48.53
2023-09-08T12:08:20.753Z,49.02
2023-09-08T12:10:49.047Z,46.91
2023-09-08T12:13:24.160Z,47.25
2023-09-08T12:15:52.572Z,49.00
2023-09-08T12:18:20.859Z,48.34
2023-09-08T12:21:04.674Z,47.27
2023-09-08T12:23:32.860Z,47.20
2023-09-08T12:26:01.356Z,49.68
2023-09-08T12:28:33.199Z,48.54
2023-09-08T12:31:01.476Z,46.75
2023-09-08T12:33:29.698Z,47.11
2023-09-08T12:35:57.968Z,48.96
2023-09-08T12:38:34.652Z,50.42
2023-09-08T12:41:03.177Z,48.94
2023-09-08T12:43:31.538Z,48.64
2023-09-08T12:45:59.881Z,48.91
2023-09-08T12:48:28.153Z,49.43
2023-09-08T12:50:56.434Z,49.21
2023-09-08T12:53:24.804Z,48.75
2023-09-08T12:55:53.067Z,49.47
2023-09-08T12:58:21.899Z,49.38
2023-09-08T13:00:50.159Z,49.27
2023-09-08T13:03:18.399Z,48.35
2023-09-08T13:05:46.733Z,49.56
2023-09-08T13:08:16.672Z,48.66
2023-09-08T13:10:44.971Z,47.89
2023-09-08T13:13:13.302Z,48.74
2023-09-08T13:15:41.565Z,48.69
2023-09-08T13:18:09.973Z,48.52
2023-09-08T13:20:38.225Z,49.04
2023-09-08T13:23:06.493Z,48.45
2023-09-08T13:25:34.716Z,48.77
2023-09-08T13:28:03.086Z,48.60
2023-09-08T13:30:31.342Z,48.09
2023-09-08T13:32:59.731Z,48.83
2023-09-08T13:35:27.955Z,47.67
2023-09-08T13:37:56.132Z,49.09
2023-09-08T13:40:24.437Z,48.57
2023-09-08T13:42:52.847Z,48.94
2023-09-08T13:45:21.130Z,48.09
2023-09-08T13:47:50.535Z,49.27
2023-09-08T13:50:20.841Z,48.89
2023-09-08T13:52:51.451Z,48.22
2023-09-08T13:55:37.098Z,48.35
2023-09-08T13:58:09.174Z,48.62
2023-09-08T14:00:45.011Z,48.05
2023-09-08T14:03:15.231Z,48.40
2023-09-08T14:05:46.229Z,48.62
2023-09-08T14:08:20.167Z,49.27
2023-09-08T14:13:27.562Z,49.42
2023-09-08T14:15:56.426Z,50.65
2023-09-08T14:18:24.764Z,50.27
2023-09-08T14:20:52.977Z,49.64
2023-09-08T14:23:21.242Z,49.20
2023-09-08T14:25:49.474Z,49.80
2023-09-08T14:28:17.649Z,49.96
2023-09-08T14:30:45.919Z,50.40
2023-09-08T14:33:14.176Z,50.20
2023-09-08T14:35:47.172Z,49.28
2023-09-08T14:38:17.877Z,49.82
2023-09-08T14:40:47.165Z,49.56
2023-09-08T14:43:15.345Z,50.18
2023-09-08T14:45:46.752Z,49.81
2023-09-08T14:48:15.536Z,50.82
2023-09-08T14:50:43.904Z,51.38
2023-09-08T14:53:12.203Z,50.88
2023-09-08T14:55:45.262Z,49.49
2023-09-08T14:58:13.631Z,50.27
2023-09-08T15:00:42.384Z,49.72
2023-09-08T15:03:10.695Z,49.88
2023-09-08T15:05:38.940Z,51.16
2023-09-08T15:08:07.281Z,51.55
2023-09-08T15:10:35.490Z,51.48
2023-09-08T15:13:04.634Z,53.45
2023-09-08T15:15:32.900Z,51.02
2023-09-08T15:18:01.238Z,51.58
2023-09-08T15:20:29.562Z,50.96
2023-09-08T15:22:57.958Z,49.52
2023-09-08T15:25:26.211Z,49.95
2023-09-08T15:27:54.449Z,51.26
2023-09-08T15:30:22.836Z,52.12
2023-09-08T15:32:51.192Z,52.00
2023-09-08T15:35:19.498Z,52.28
2023-09-08T15:37:47.788Z,51.56
2023-09-08T15:40:16.117Z,51.52
2023-09-08T15:42:44.736Z,50.45
2023-09-08T15:45:13.404Z,50.81
2023-09-08T15:47:41.679Z,51.09
2023-09-08T15:50:11.627Z,52.48
2023-09-08T15:52:39.866Z,52.77
2023-09-08T15:55:08.371Z,52.42
2023-09-08T15:57:36.551Z,52.20
2023-09-08T16:00:04.999Z,53.26
2023-09-08T16:02:37.071Z,52.67
2023-09-08T16:05:05.991Z,55.41
2023-09-08T16:07:34.263Z,54.13
2023-09-08T16:10:02.507Z,54.93
2023-09-08T16:12:32.837Z,54.70
2023-09-08T16:15:03.250Z,56.46
2023-09-08T16:17:31.592Z,54.30
2023-09-08T16:20:00.536Z,54.21
2023-09-08T16:22:28.720Z,53.64
2023-09-08T16:24:57.203Z,55.34
2023-09-08T16:27:27.667Z,56.83
2023-09-08T16:29:55.845Z,56.74
2023-09-08T16:32:24.148Z,55.44
2023-09-08T16:34:53.064Z,56.41
2023-09-08T16:37:21.290Z,57.50
2023-09-08T16:39:49.521Z,57.30
2023-09-08T16:42:17.785Z,57.42
2023-09-08T16:44:46.117Z,57.66
2023-09-08T16:47:14.319Z,57.46
2023-09-08T16:49:42.897Z,56.97
2023-09-08T16:52:11.174Z,58.07
2023-09-08T16:54:39.402Z,59.48
2023-09-08T16:57:07.752Z,60.73
2023-09-08T16:59:36.048Z,61.55
2023-09-08T17:02:04.450Z,62.77
2023-09-08T17:04:32.785Z,63.03
2023-09-08T17:07:01.121Z,62.96
2023-09-08T17:09:29.775Z,62.96
2023-09-08T17:11:57.917Z,64.82
2023-09-08T17:14:25.776Z,64.77
2023-09-08T17:16:54.218Z,66.27
2023-09-08T17:19:22.492Z,67.02
2023-09-08T17:21:51.831Z,67.39
2023-09-08T17:24:20.262Z,68.29
2023-09-08T17:26:48.456Z,68.67
2023-09-08T17:29:16.321Z,68.80
2023-09-08T17:31:44.548Z,69.49
2023-09-08T17:34:21.143Z,70.07
2023-09-08T17:36:53.982Z,70.62
2023-09-08T17:39:22.231Z,71.40
2023-09-08T17:41:50.312Z,70.69
2023-09-08T17:44:18.469Z,72.40
2023-09-08T17:46:48.866Z,72.21
2023-09-08T17:49:17.297Z,73.26
2023-09-08T17:51:45.543Z,73.65
2023-09-08T17:54:13.507Z,73.34
2023-09-08T17:56:41.745Z,74.88
2023-09-08T17:59:09.588Z,74.65
2023-09-08T18:01:39.108Z,75.58
2023-09-08T18:04:07.936Z,76.43
2023-09-08T18:06:36.273Z,76.72
2023-09-08T18:09:04.782Z,77.54
2023-09-08T18:11:34.126Z,78.28
2023-09-08T18:14:02.380Z,78.57
2023-09-08T18:16:30.187Z,78.37
2023-09-08T18:18:58.450Z,78.69
2023-09-08T18:21:26.642Z,79.36
2023-09-08T18:23:54.866Z,79.67
2023-09-08T18:26:23.241Z,80.16
2023-09-08T18:28:51.475Z,80.58
2023-09-08T18:31:19.740Z,80.55
2023-09-08T18:33:47.664Z,80.41
2023-09-08T18:36:15.830Z,81.17
2023-09-08T18:38:44.018Z,81.51
2023-09-08T18:41:12.306Z,81.62
2023-09-08T18:43:40.193Z,81.16
2023-09-08T18:46:08.414Z,81.50
2023-09-08T18:48:37.500Z,81.63
2023-09-08T18:51:05.756Z,82.31
2023-09-08T18:53:35.900Z,82.38
2023-09-08T18:56:05.233Z,82.53
2023-09-08T18:58:40.176Z,82.64
2023-09-08T19:01:08.744Z,83.00
2023-09-08T19:03:43.854Z,83.71
2023-09-08T19:06:12.159Z,83.34
2023-09-08T19:08:40.623Z,83.38
2023-09-08T19:11:08.894Z,83.71
2023-09-08T19:13:37.454Z,84.03
2023-09-08T19:16:05.944Z,84.49
2023-09-08T19:18:34.253Z,84.05
2023-09-08T19:21:02.445Z,84.45
2023-09-08T19:23:31.216Z,84.78
2023-09-08T19:25:59.435Z,84.89
2023-09-08T19:28:27.622Z,85.23
2023-09-08T19:30:56.059Z,85.34
2023-09-08T19:33:24.493Z,85.74
2023-09-08T19:35:52.656Z,85.16
2023-09-08T19:38:20.862Z,85.51
2023-09-08T19:40:49.181Z,85.82
2023-09-08T19:43:17.415Z,86.62
2023-09-08T19:45:45.655Z,86.30
2023-09-08T19:48:14.054Z,86.38
2023-09-08T19:50:45.699Z,86.67
2023-09-08T19:53:13.927Z,86.48
2023-09-08T19:55:42.220Z,87.02
2023-09-08T19:58:10.510Z,87.32
2023-09-08T20:00:39.893Z,87.03
2023-09-08T20:03:08.126Z,87.28
2023-09-08T20:05:36.493Z,87.89
2023-09-08T20:08:04.766Z,88.49
2023-09-08T20:10:33.277Z,88.32
2023-09-08T20:13:03.060Z,88.42
2023-09-08T20:15:31.318Z,88.35
2023-09-08T20:18:00.446Z,88.81
2023-09-08T20:20:28.810Z,89.01
2023-09-08T20:22:57.015Z,88.74
2023-09-08T20:25:25.326Z,88.69
2023-09-08T20:27:53.496Z,89.29
2023-09-08T20:30:22.037Z,89.45
2023-09-08T20:32:50.310Z,89.24
2023-09-08T20:35:18.779Z,89.56
2023-09-08T20:37:46.683Z,89.04
2023-09-08T20:40:14.962Z,89.30
2023-09-08T20:42:43.136Z,89.15
2023-09-08T20:45:11.569Z,89.38
2023-09-08T20:47:39.491Z,89.19
2023-09-08T20:50:08.132Z,89.95
2023-09-08T20:52:38.309Z,90.47
2023-09-08T20:55:07.104Z,90.45
2023-09-08T20:57:35.411Z,90.12
2023-09-08T21:00:05.158Z,90.56
2023-09-08T21:02:33.551Z,90.48
2023-09-08T21:05:01.791Z,90.46
2023-09-08T21:07:30.043Z,90.94
2023-09-08T21:09:58.229Z,90.67
2023-09-08T21:12:26.794Z,91.07
2023-09-08T21:14:57.445Z,90.94
2023-09-08T21:17:25.685Z,91.17
2023-09-08T21:19:53.948Z,91.49
2023-09-08T21:22:22.242Z,91.41
2023-09-08T21:24:50.422Z,91.74
2023-09-08T21:27:18.677Z,91.38
2023-09-08T21:29:47.445Z,91.64
2023-09-08T21:32:15.793Z,91.99
2023-09-08T21:34:43.999Z,92.32
2023-09-08T21:37:12.222Z,92.27
2023-09-08T21:39:40.455Z,92.25
2023-09-08T21:42:08.801Z,92.01
2023-09-08T21:44:37.009Z,91.95
2023-09-08T21:47:05.565Z,92.20
2023-09-08T21:49:33.837Z,92.15
2023-09-08T21:52:02.162Z,92.23
2023-09-08T21:54:30.378Z,92.14
2023-09-08T21:56:58.599Z,92.51
2023-09-08T21:59:26.860Z,92.48
2023-09-08T22:01:55.985Z,92.63
2023-09-08T22:04:24.618Z,92.43
2023-09-08T22:06:54.053Z,92.46
2023-09-08T22:09:23.156Z,92.88
2023-09-08T22:11:51.661Z,93.04
2023-09-08T22:14:19.650Z,93.00
2023-09-08T22:16:47.973Z,92.65
2023-09-08T22:19:16.410Z,92.99
2023-09-08T22:21:45.715Z,93.37
2023-09-08T22:24:14.066Z,93.15
2023-09-08T22:26:42.270Z,93.39
2023-09-08T22:29:10.564Z,93.00
2023-09-08T22:31:38.850Z,93.69
2023-09-08T22:34:07.131Z,93.24
2023-09-08T22:36:35.386Z,93.08
2023-09-08T22:39:05.811Z,93.17
2023-09-08T22:41:34.019Z,93.35
2023-09-08T22:44:02.226Z,93.92
2023-09-08T22:46:30.702Z,93.66
2023-09-08T22:48:58.908Z,93.85
2023-09-08T22:51:27.169Z,94.07
2023-09-08T22:53:55.446Z,93.67
2023-09-08T22:56:23.760Z,94.20
2023-09-08T22:58:52.119Z,93.87
2023-09-08T23:01:20.413Z,94.18
2023-09-08T23:03:48.790Z,93.86
2023-09-08T23:06:17.138Z,93.70
2023-09-08T23:08:45.317Z,93.64
2023-09-08T23:11:13.584Z,94.00
2023-09-08T23:13:41.965Z,94.32
2023-09-08T23:16:14.233Z,93.84
2023-09-08T23:18:42.648Z,94.02
2023-09-08T23:21:11.009Z,94.10
2023-09-08T23:23:39.478Z,94.11
2023-09-08T23:26:07.867Z,94.15
2023-09-08T23:28:37.716Z,94.58
2023-09-08T23:31:05.979Z,94.12
2023-09-08T23:33:34.289Z,94.18
2023-09-08T23:36:02.537Z,94.72
2023-09-08T23:38:30.793Z,94.22
2023-09-08T23:40:58.986Z,94.56
2023-09-08T23:43:27.747Z,94.13
2023-09-08T23:45:56.066Z,94.26
2023-09-08T23:48:24.243Z,94.38
2023-09-08T23:51:00.133Z,94.45
2023-09-08T23:53:29.672Z,94.62
2023-09-08T23:55:58.087Z,94.89
2023-09-08T23:58:26.338Z,95.01
